Time;durP1;ratioP1;P1;durP2;ratioP2;P2;SDS_P1;SDS_P2;PMS_P1;PMS_P2;Temp;Humidity;BMP_temperature;BMP_pressure;BME280_temperature;BME280_humidity;BME280_pressure;Samples;Min_cycle;Max_cycle;Signal;HPM_P1;HPM_P2
2022/09/25 00:02:13;;;;;;;7.38;5.05;;;;;;;22.50;38.76;95236.00;4950081;28;20051;-63
2022/09/25 00:04:39;;;;;;;6.65;4.72;;;;;;;22.44;38.76;95237.97;4950530;28;20042;-63
2022/09/25 00:07:04;;;;;;;6.50;5.20;;;;;;;22.17;38.98;95187.03;4947919;28;20642;-64
2022/09/25 00:09:29;;;;;;;6.05;4.43;;;;;;;22.68;38.68;95254.50;4950511;28;21690;-64
2022/09/25 00:11:55;;;;;;;7.15;4.93;;;;;;;22.33;38.81;95205.34;4946428;28;20053;-65
2022/09/25 00:14:20;;;;;;;5.22;4.50;;;;;;;22.67;38.47;95255.75;4947369;28;20053;-64
2022/09/25 00:16:46;;;;;;;5.28;4.30;;;;;;;22.58;38.74;95236.94;4938741;28;21800;-63
2022/09/25 00:22:04;;;;;;;6.88;4.80;;;;;;;22.38;38.96;95223.63;4930606;28;20074;-66
2022/09/25 00:24:30;;;;;;;7.05;4.88;;;;;;;22.39;38.88;95219.69;4948229;28;20034;-64
2022/09/25 00:26:56;;;;;;;6.72;5.03;;;;;;;22.58;39.08;95247.84;4950165;28;20078;-62
2022/09/25 00:29:21;;;;;;;7.03;4.97;;;;;;;22.57;39.11;95240.91;4950973;28;20053;-62
2022/09/25 00:31:47;;;;;;;6.53;4.72;;;;;;;22.58;39.00;95247.84;4948519;28;20117;-64
2022/09/25 00:34:13;;;;;;;6.28;4.50;;;;;;;22.62;38.81;95256.50;4946065;28;21510;-63
2022/09/25 00:36:38;;;;;;;6.53;4.47;;;;;;;22.54;38.68;95241.91;4948140;28;20050;-63
2022/09/25 00:39:04;;;;;;;7.10;4.95;;;;;;;22.15;38.66;95211.28;4947914;28;20054;-65
2022/09/25 00:41:32;;;;;;;6.38;4.20;;;;;;;22.51;39.05;95229.28;4949320;28;20080;-63
2022/09/25 00:43:58;;;;;;;6.00;4.80;;;;;;;22.58;39.03;95236.94;4950237;28;20153;-62
2022/09/25 00:46:30;;;;;;;5.95;4.45;;;;;;;22.59;39.00;95227.56;4955952;28;20073;-61
2022/09/25 00:49:04;;;;;;;7.53;4.75;;;;;;;22.49;38.87;95223.63;4962144;28;20042;-62
2022/09/25 00:51:37;;;;;;;5.63;4.72;;;;;;;22.51;39.07;95226.56;4926546;28;20124;-63
2022/09/25 00:54:03;;;;;;;6.32;4.90;;;;;;;22.57;39.26;95246.34;4942959;28;20138;-63
2022/09/25 00:56:31;;;;;;;6.05;4.95;;;;;;;22.46;39.00;95227.31;4952520;28;20174;-63
2022/09/25 00:58:57;;;;;;;6.55;4.60;;;;;;;22.22;39.22;95194.47;4947421;28;20509;-63
2022/09/25 01:01:22;;;;;;;7.30;4.78;;;;;;;22.39;39.05;95214.25;4924684;28;20515;-62
2022/09/25 01:03:47;;;;;;;6.45;4.43;;;;;;;22.33;39.26;95205.34;4909457;28;21253;-64
2022/09/25 01:06:13;;;;;;;6.05;4.57;;;;;;;22.16;39.22;95179.38;4932722;28;20132;-64
2022/09/25 01:08:39;;;;;;;5.53;4.30;;;;;;;22.48;38.95;95216.69;4964067;28;20046;-63
2022/09/25 01:11:04;;;;;;;6.72;5.13;;;;;;;22.33;39.10;95199.91;4942167;28;20138;-63
2022/09/25 01:13:30;;;;;;;7.20;4.85;;;;;;;22.29;38.85;95193.97;4962053;28;20070;-60
2022/09/25 01:16:01;;;;;;;6.72;4.70;;;;;;;22.10;39.13;95160.34;4964394;28;20565;-59
2022/09/25 01:18:51;;;;;;;6.45;4.90;;;;;;;22.38;39.32;95210.03;4969875;28;20030;-59
2022/09/25 01:21:24;;;;;;;6.30;4.63;;;;;;;22.49;39.31;95220.88;4970633;28;20160;-59
2022/09/25 01:24:02;;;;;;;6.28;4.90;;;;;;;22.39;39.40;95208.81;4946793;28;20035;-60
2022/09/25 01:27:02;;;;;;;6.13;4.88;;;;;;;22.49;39.20;95218.16;4947180;28;20050;-61
2022/09/25 01:30:07;;;;;;;6.05;4.70;;;;;;;22.48;39.23;95208.50;4949545;28;20050;-58
2022/09/25 01:32:37;;;;;;;6.15;4.60;;;;;;;22.50;39.12;95222.38;4956770;28;20039;-59
2022/09/25 01:35:13;;;;;;;5.50;4.35;;;;;;;22.45;39.27;95221.16;4983125;28;20061;-58
2022/09/25 01:38:04;;;;;;;6.03;4.50;;;;;;;22.40;39.44;95221.16;4982941;28;20082;-59
2022/09/25 01:40:33;;;;;;;6.20;4.65;;;;;;;21.90;39.10;95148.25;4969332;28;20057;-61
2022/09/25 01:43:19;;;;;;;6.50;4.53;;;;;;;22.44;39.55;95235.25;4984344;28;20034;-61
2022/09/25 01:45:49;;;;;;;5.75;4.65;;;;;;;22.10;39.30;95178.63;4949154;28;20121;-61
2022/09/25 01:48:16;;;;;;;5.93;4.47;;;;;;;22.44;39.56;95230.53;4944698;28;20177;-60
2022/09/25 01:51:20;;;;;;;5.63;4.43;;;;;;;22.47;39.52;95231.53;4965498;28;20037;-60
2022/09/25 01:53:54;;;;;;;4.88;4.05;;;;;;;22.06;39.44;95187.06;4975118;28;20522;-59
2022/09/25 01:56:31;;;;;;;7.03;4.35;;;;;;;22.05;39.09;95196.44;4957711;28;20467;-61
2022/09/25 01:59:07;;;;;;;6.15;4.32;;;;;;;22.42;39.46;95237.75;4966760;28;20046;-59
2022/09/25 02:01:37;;;;;;;5.93;4.03;;;;;;;21.92;39.15;95153.94;4955397;28;20060;-61
2022/09/25 02:04:07;;;;;;;5.68;4.57;;;;;;;22.34;39.47;95216.97;4981219;28;20033;-62
2022/09/25 02:06:33;;;;;;;5.22;4.43;;;;;;;21.96;39.30;95153.19;4931900;28;20077;-59
2022/09/25 02:09:02;;;;;;;5.70;4.70;;;;;;;22.39;39.29;95225.13;4954742;28;20167;-58
2022/09/25 02:11:30;;;;;;;7.13;5.00;;;;;;;22.11;39.13;95178.16;4965457;28;20062;-59
2022/09/25 02:14:01;;;;;;;6.78;4.57;;;;;;;22.37;39.38;95208.53;4965134;28;20038;-61
2022/09/25 02:16:29;;;;;;;8.23;4.82;;;;;;;22.22;39.27;95205.34;4961531;28;20545;-61
2022/09/25 02:22:06;;;;;;;6.55;4.47;;;;;;;22.34;39.29;95209.53;4938603;29;20082;-60
2022/09/25 02:24:39;;;;;;;6.57;4.63;;;;;;;22.39;39.31;95219.69;4957398;28;20508;-61
2022/09/25 02:27:05;;;;;;;6.32;4.57;;;;;;;22.00;39.36;95178.16;4964696;28;20082;-58
2022/09/25 02:29:31;;;;;;;5.75;4.53;;;;;;;22.13;39.36;95202.13;4981851;28;20046;-59
2022/09/25 02:31:58;;;;;;;5.82;4.60;;;;;;;22.18;39.44;95218.44;4965416;28;20042;-61
2022/09/25 02:34:24;;;;;;;5.55;4.20;;;;;;;22.24;39.57;95224.66;4949181;28;20057;-59
2022/09/25 02:36:49;;;;;;;5.47;4.32;;;;;;;22.37;39.17;95226.84;4969192;28;20050;-64
2022/09/25 02:39:16;;;;;;;5.65;4.47;;;;;;;22.31;39.43;95229.56;4971507;28;20061;-63
2022/09/25 02:42:05;;;;;;;5.88;4.43;;;;;;;22.29;39.65;95215.75;4977819;28;20038;-64
2022/09/25 02:45:00;;;;;;;5.50;4.63;;;;;;;22.35;39.36;95224.63;4985417;28;20039;-64
2022/09/25 02:47:33;;;;;;;6.03;4.68;;;;;;;22.03;39.68;95182.63;4966522;28;20549;-62
2022/09/25 02:50:04;;;;;;;6.57;4.60;;;;;;;22.38;39.45;95229.09;4943672;28;20043;-63
2022/09/25 02:52:58;;;;;;;4.97;4.15;;;;;;;22.36;39.50;95223.41;4986052;28;20069;-62
2022/09/25 02:55:39;;;;;;;5.65;4.57;;;;;;;22.33;39.27;95221.69;4995339;28;20748;-62
2022/09/25 02:58:30;;;;;;;5.53;4.30;;;;;;;22.35;39.59;95221.91;4988367;28;20033;-62
2022/09/25 03:00:56;;;;;;;5.03;4.00;;;;;;;22.37;39.24;95227.59;4944915;28;20069;-63
2022/09/25 03:03:23;;;;;;;5.55;4.30;;;;;;;22.35;39.45;95224.63;4984062;28;20026;-63
2022/09/25 03:05:48;;;;;;;6.30;4.55;;;;;;;22.14;39.30;95192.75;4951292;28;20073;-62
2022/09/25 03:10:58;;;;;;;6.60;4.57;;;;;;;22.31;39.49;95229.56;4969577;28;20100;-62
2022/09/25 03:13:32;;;;;;;4.68;4.00;;;;;;;22.31;39.45;95224.13;4976081;28;20070;-61
2022/09/25 03:16:13;;;;;;;5.65;4.43;;;;;;;22.33;39.56;95224.41;4962066;28;20122;-63
2022/09/25 03:18:38;;;;;;;5.63;4.68;;;;;;;22.18;39.57;95209.53;4961794;28;20023;-62
2022/09/25 03:21:04;;;;;;;5.72;4.63;;;;;;;22.12;39.51;95195.97;4973441;28;20050;-63
2022/09/25 03:23:31;;;;;;;5.68;4.72;;;;;;;22.33;39.71;95221.69;4977286;28;20045;-62
2022/09/25 03:26:03;;;;;;;6.90;4.80;;;;;;;22.29;39.36;95218.47;4962264;28;20058;-63
2022/09/25 03:28:29;;;;;;;5.75;4.30;;;;;;;22.32;39.61;95230.34;4967371;28;20038;-62
2022/09/25 03:31:01;;;;;;;6.25;4.38;;;;;;;22.28;39.53;95225.13;4957936;28;20030;-62
2022/09/25 03:33:28;;;;;;;5.40;4.43;;;;;;;21.95;39.43;95159.13;4970042;28;20034;-64
2022/09/25 03:36:05;;;;;;;5.68;4.40;;;;;;;22.21;39.56;95198.44;4961237;28;20023;-63
2022/09/25 03:38:30;;;;;;;5.82;4.40;;;;;;;22.23;39.66;95206.84;4962976;28;20038;-64
2022/09/25 03:40:56;;;;;;;5.40;4.35;;;;;;;22.30;39.74;95222.66;4976263;28;20039;-63
2022/09/25 03:43:21;;;;;;;6.55;5.00;;;;;;;22.25;39.65;95207.06;4961847;28;20126;-63
2022/09/25 03:45:47;;;;;;;5.13;4.10;;;;;;;21.87;39.62;95162.84;4961782;28;20479;-63
2022/09/25 03:48:12;;;;;;;6.65;4.88;;;;;;;22.12;39.48;95195.97;4962677;28;20234;-65
2022/09/25 03:50:38;;;;;;;5.95;4.70;;;;;;;22.31;39.70;95217.97;4982584;28;20043;-64
2022/09/25 03:53:03;;;;;;;5.47;4.40;;;;;;;21.90;39.60;95167.28;4961354;28;20042;-64
2022/09/25 03:55:29;;;;;;;5.70;4.20;;;;;;;22.17;39.61;95203.34;4971151;28;20427;-64
2022/09/25 03:57:54;;;;;;;5.70;4.03;;;;;;;22.21;39.59;95214.78;4962360;28;20073;-67
2022/09/25 04:00:20;;;;;;;5.35;4.43;;;;;;;22.13;39.54;95202.84;4970109;28;20030;-64
2022/09/25 04:02:45;;;;;;;5.72;4.15;;;;;;;21.84;39.72;95163.81;4977103;28;20050;-64
2022/09/25 04:05:11;;;;;;;6.43;4.75;;;;;;;22.28;39.57;95229.84;4980452;28;20043;-64
2022/09/25 04:07:37;;;;;;;5.82;4.63;;;;;;;22.28;39.39;95236.00;4982007;28;20449;-64
2022/09/25 04:10:02;;;;;;;5.88;4.40;;;;;;;22.30;39.53;95238.22;4976759;28;20030;-66
2022/09/25 04:12:28;;;;;;;5.50;4.45;;;;;;;21.75;39.62;95155.91;4944122;28;20454;-62
2022/09/25 04:14:53;;;;;;;5.28;4.30;;;;;;;21.85;39.50;95176.19;4969145;28;20061;-62
2022/09/25 04:17:19;;;;;;;6.03;4.78;;;;;;;22.25;39.35;95231.56;4980340;28;20045;-64
2022/09/25 04:19:45;;;;;;;6.25;4.75;;;;;;;22.00;39.60;95196.44;4978568;28;20050;-62
2022/09/25 04:22:11;;;;;;;5.63;4.40;;;;;;;22.13;39.64;95218.44;4966715;28;20140;-64
2022/09/25 04:24:49;;;;;;;5.60;4.60;;;;;;;22.24;39.56;95240.97;4950040;28;20031;-63
2022/09/25 04:27:19;;;;;;;5.03;4.05;;;;;;;22.13;39.72;95224.63;4974865;28;20519;-62
2022/09/25 04:29:44;;;;;;;;;;;;;;;22.25;39.72;95252.59;4968893;28;20526;-64
2022/09/25 04:34:54;;;;;;;6.03;4.47;;;;;;;22.22;39.34;95238.00;4970303;28;20062;-62
2022/09/25 04:37:25;;;;;;;5.03;4.25;;;;;;;22.18;39.77;95232.06;4983083;28;20046;-63
2022/09/25 04:39:52;;;;;;;5.40;4.60;;;;;;;22.12;39.34;95228.59;4965687;28;20046;-64
2022/09/25 04:42:23;;;;;;;6.07;4.75;;;;;;;22.23;39.58;95250.38;4964928;28;20053;-64
2022/09/25 04:44:53;;;;;;;5.60;4.32;;;;;;;21.91;39.65;95193.97;4997484;28;20041;-61
2022/09/25 04:47:19;;;;;;;5.22;4.60;;;;;;;22.23;39.53;95255.81;4973367;28;20046;-63
2022/09/25 04:49:45;;;;;;;6.05;4.38;;;;;;;21.94;39.65;95212.78;4955613;28;20122;-63
2022/09/25 04:52:14;;;;;;;4.95;3.85;;;;;;;21.89;39.87;95182.13;4972123;28;20049;-62
2022/09/25 04:54:41;;;;;;;6.27;4.70;;;;;;;21.85;39.59;95174.19;4962946;28;20719;-63
2022/09/25 04:57:06;;;;;;;5.45;4.35;;;;;;;21.73;39.54;95158.41;4964039;28;20035;-63
2022/09/25 04:59:32;;;;;;;5.20;4.22;;;;;;;22.25;39.57;95239.72;4970207;28;20775;-62
2022/09/25 05:01:57;;;;;;;4.93;4.40;;;;;;;22.20;39.51;95228.84;4955414;28;20066;-64
2022/09/25 05:04:23;;;;;;;5.03;4.35;;;;;;;22.28;39.78;95255.06;4977347;28;20522;-61
2022/09/25 05:06:50;;;;;;;5.63;4.60;;;;;;;22.24;39.67;95243.69;4964399;28;20042;-62
2022/09/25 05:09:15;;;;;;;5.50;4.25;;;;;;;22.13;39.48;95227.34;4975962;28;20696;-61
2022/09/25 05:11:41;;;;;;;6.00;4.60;;;;;;;22.14;39.65;95234.25;4971687;28;20123;-63
2022/09/25 05:14:07;;;;;;;6.03;4.45;;;;;;;22.03;39.81;95193.50;4964015;28;20795;-61
2022/09/25 05:16:33;;;;;;;5.35;3.90;;;;;;;22.13;39.60;95224.63;4976654;28;20053;-62
2022/09/25 05:18:58;;;;;;;5.47;4.38;;;;;;;22.28;39.69;95235.28;4982702;28;20602;-61
2022/09/25 05:21:24;;;;;;;4.75;4.10;;;;;;;22.29;39.17;95237.50;4979528;28;20430;-63
2022/09/25 05:23:50;;;;;;;4.90;4.10;;;;;;;22.29;39.60;95234.06;4971815;28;20049;-65
2022/09/25 05:26:15;;;;;;;5.43;4.00;;;;;;;22.30;39.66;95233.56;4963296;28;20042;-65
2022/09/25 05:28:41;;;;;;;6.25;4.40;;;;;;;21.88;39.35;95175.19;4963212;28;20053;-65
2022/09/25 05:31:06;;;;;;;4.30;3.75;;;;;;;22.31;39.49;95228.84;4967024;28;20536;-62
2022/09/25 05:33:32;;;;;;;4.78;3.90;;;;;;;22.36;39.27;95231.56;4970367;28;20019;-63
2022/09/25 05:36:04;;;;;;;6.43;4.28;;;;;;;22.20;39.54;95207.81;4965745;28;20039;-64
2022/09/25 05:38:33;;;;;;;5.43;4.03;;;;;;;22.26;39.80;95203.13;4979265;28;20121;-64
2022/09/25 05:41:03;;;;;;;5.15;4.57;;;;;;;22.47;39.79;95226.09;4979455;28;20038;-63
2022/09/25 05:43:30;;;;;;;6.75;4.20;;;;;;;22.57;39.75;95235.47;4963691;28;20049;-61
2022/09/25 05:45:56;;;;;;;4.90;3.92;;;;;;;22.32;39.89;95190.25;4974563;28;20049;-63
2022/09/25 05:48:22;;;;;;;5.63;4.20;;;;;;;22.45;39.54;95190.47;4979348;28;20022;-65
2022/09/25 05:50:54;;;;;;;4.63;3.78;;;;;;;23.00;39.39;95251.72;4978699;28;20042;-64
2022/09/25 05:53:20;;;;;;;5.25;4.18;;;;;;;22.54;39.12;95162.97;4962192;28;20027;-63
2022/09/25 05:55:58;;;;;;;4.82;3.92;;;;;;;22.83;38.86;95176.75;4961662;28;20121;-64
2022/09/25 05:58:24;;;;;;;4.60;3.75;;;;;;;22.87;38.49;95177.22;4974923;28;20050;-64
2022/09/25 06:00:50;;;;;;;5.05;4.32;;;;;;;23.34;38.46;95231.25;4974948;28;20042;-62
2022/09/25 06:03:16;;;;;;;4.97;4.03;;;;;;;23.28;38.01;95195.13;4975444;28;20511;-64
2022/09/25 06:05:41;;;;;;;5.50;4.35;;;;;;;23.60;38.07;95248.69;4967417;28;20120;-67
2022/09/25 06:08:07;;;;;;;6.55;4.00;;;;;;;23.71;38.10;95242.47;4982620;28;20038;-64
2022/09/25 06:10:33;;;;;;;4.68;3.72;;;;;;;23.74;37.81;95228.56;4980933;28;20100;-67
2022/09/25 06:13:00;;;;;;;4.80;4.00;;;;;;;23.90;37.83;95233.91;4974177;28;20791;-66
2022/09/25 06:15:26;;;;;;;6.07;4.20;;;;;;;24.02;37.48;95235.28;4962319;28;20035;-65
2022/09/25 06:17:52;;;;;;;5.38;4.28;;;;;;;23.77;37.61;95185.91;4960479;28;20069;-64
2022/09/25 06:20:18;;;;;;;4.60;3.85;;;;;;;23.85;37.21;95192.28;4980134;28;20152;-66
2022/09/25 06:22:43;;;;;;;5.03;4.07;;;;;;;24.20;37.36;95242.84;4979227;28;20034;-64
2022/09/25 06:25:09;;;;;;;5.80;3.97;;;;;;;24.30;37.22;95252.16;4963002;28;20081;-65
2022/09/25 06:27:35;;;;;;;4.85;3.95;;;;;;;24.32;37.31;95257.88;4983332;28;20095;-63
2022/09/25 06:30:01;;;;;;;5.70;3.90;;;;;;;24.07;36.89;95193.56;5000078;28;20064;-63
2022/09/25 06:32:27;;;;;;;4.82;4.00;;;;;;;23.98;37.20;95183.00;4972187;28;20491;-64
2022/09/25 06:34:52;;;;;;;4.95;4.20;;;;;;;24.31;37.10;95212.72;4990938;28;20034;-64
2022/09/25 06:37:17;;;;;;;5.32;3.58;;;;;;;24.35;37.16;95235.06;4999807;28;20038;-65
2022/09/25 06:39:43;;;;;;;4.72;3.80;;;;;;;24.05;36.72;95190.63;4993372;28;20034;-66
2022/09/25 06:42:08;;;;;;;5.35;3.97;;;;;;;24.47;37.08;95239.16;4992832;28;20100;-65
2022/09/25 06:44:34;;;;;;;4.90;4.13;;;;;;;24.63;36.96;95243.69;4999011;28;20478;-66
2022/09/25 06:47:00;;;;;;;6.35;4.20;;;;;;;24.46;36.86;95218.56;4999082;28;21008;-64
2022/09/25 06:49:26;;;;;;;4.93;4.13;;;;;;;24.15;36.75;95167.19;4999535;28;20042;-67
2022/09/25 06:51:52;;;;;;;5.15;4.05;;;;;;;24.33;36.38;95177.47;4993680;28;20036;-67
2022/09/25 06:54:17;;;;;;;5.07;3.83;;;;;;;24.23;36.09;95146.31;4979137;28;20022;-67
2022/09/25 06:56:43;;;;;;;4.95;3.80;;;;;;;24.84;36.20;95243.47;4992932;28;20822;-66
2022/09/25 06:59:08;;;;;;;5.30;4.20;;;;;;;24.56;36.28;95200.59;4987698;28;20912;-64
2022/09/25 07:01:34;;;;;;;5.38;4.03;;;;;;;24.82;36.31;95224.13;4973191;28;20070;-66
2022/09/25 07:04:01;;;;;;;4.35;3.95;;;;;;;24.93;35.84;95234.94;4973618;28;21097;-64
2022/09/25 07:06:27;;;;;;;4.63;3.80;;;;;;;24.78;36.11;95222.19;4998420;28;20030;-64
2022/09/25 07:08:55;;;;;;;4.75;3.88;;;;;;;24.77;36.25;95228.91;4998387;28;20047;-66
2022/09/25 07:11:25;;;;;;;4.57;3.97;;;;;;;24.91;35.87;95259.28;4977319;28;20089;-68
2022/09/25 07:13:53;;;;;;;5.47;4.00;;;;;;;24.96;35.86;95253.03;4972118;28;20035;-66
2022/09/25 07:16:20;;;;;;;4.60;3.60;;;;;;;24.87;36.16;95247.91;4960864;28;20058;-66
2022/09/25 07:18:45;;;;;;;8.85;5.30;;;;;;;24.90;35.95;95219.56;4973443;28;20438;-66
2022/09/25 07:21:17;;;;;;;16.67;6.68;;;;;;;24.65;36.01;95216.63;4978544;28;20045;-64
2022/09/25 07:23:43;;;;;;;10.65;5.35;;;;;;;24.61;36.29;95219.63;4962457;28;20042;-65
2022/09/25 07:26:13;;;;;;;13.00;6.05;;;;;;;24.75;36.06;95261.47;4978727;28;20648;-65
2022/09/25 07:28:39;;;;;;;11.82;5.80;;;;;;;24.71;36.68;95282.84;4969175;28;20042;-65
2022/09/25 07:31:41;;;;;;;17.45;6.55;;;;;;;24.48;36.50;95281.56;4970834;28;20035;-64
2022/09/25 07:34:10;;;;;;;16.42;6.72;;;;;;;24.54;36.94;95274.84;4905108;29;20111;-64
2022/09/25 07:36:40;;;;;;;14.43;6.43;;;;;;;24.41;37.05;95265.78;4980200;28;20156;-64
2022/09/25 07:39:05;;;;;;;15.98;6.47;;;;;;;23.95;37.18;95203.09;4996407;28;20130;-65
2022/09/25 07:41:31;;;;;;;17.70;6.93;;;;;;;24.28;36.91;95257.41;4990744;28;20046;-64
2022/09/25 07:43:57;;;;;;;14.63;6.35;;;;;;;23.85;37.01;95197.75;4979533;28;20042;-63
2022/09/25 07:46:26;;;;;;;13.80;5.90;;;;;;;24.11;36.91;95232.25;4997166;28;20058;-64
2022/09/25 07:48:51;;;;;;;15.52;6.75;;;;;;;23.83;37.20;95195.53;4998298;28;20521;-65
2022/09/25 07:51:17;;;;;;;12.68;6.07;;;;;;;23.91;37.40;95201.91;4991284;28;20034;-65
2022/09/25 07:53:43;;;;;;;14.73;6.15;;;;;;;24.00;37.02;95215.94;4996787;28;20042;-64
2022/09/25 07:56:09;;;;;;;11.38;5.68;;;;;;;23.79;37.38;95188.88;4995703;28;21715;-63
2022/09/25 07:58:34;;;;;;;10.95;5.45;;;;;;;23.67;37.21;95182.75;4998678;28;20065;-64
2022/09/25 08:01:00;;;;;;;12.30;5.57;;;;;;;23.77;37.31;95191.38;4994328;28;20236;-63
2022/09/25 08:03:26;;;;;;;12.43;5.60;;;;;;;23.91;37.25;95229.91;4994423;28;20044;-65
2022/09/25 08:06:01;;;;;;;12.82;5.63;;;;;;;23.86;37.35;95222.50;4994205;28;20030;-63
2022/09/25 08:08:27;;;;;;;12.18;5.72;;;;;;;23.81;37.31;95230.00;4989810;28;20124;-64
2022/09/25 08:10:55;;;;;;;14.02;5.88;;;;;;;23.73;37.29;95218.16;5001378;28;20041;-63
2022/09/25 08:13:21;;;;;;;11.18;5.57;;;;;;;23.83;37.63;95227.53;4977155;28;20033;-65
2022/09/25 08:15:47;;;;;;;12.75;6.32;;;;;;;23.70;37.34;95219.16;4995354;28;20049;-64
2022/09/25 08:18:13;;;;;;;12.32;5.68;;;;;;;23.32;37.90;95164.84;4997332;28;20034;-63
2022/09/25 08:20:39;;;;;;;10.80;5.50;;;;;;;23.40;37.38;95166.56;4985064;28;20100;-63
2022/09/25 08:23:05;;;;;;;11.25;5.60;;;;;;;23.61;37.55;95205.81;4979690;28;20105;-63
2022/09/25 08:25:30;;;;;;;12.68;5.35;;;;;;;23.66;37.52;95224.16;5001067;28;20042;-63
2022/09/25 08:27:56;;;;;;;11.75;5.50;;;;;;;23.67;37.21;95209.28;5002341;28;20061;-63
2022/09/25 08:30:21;;;;;;;10.95;4.95;;;;;;;23.67;37.69;95201.09;5000613;28;20029;-65
2022/09/25 08:32:46;;;;;;;10.05;5.43;;;;;;;23.35;37.46;95159.16;4998899;28;20030;-63
2022/09/25 08:35:13;;;;;;;10.45;5.43;;;;;;;23.24;37.15;95134.69;5002291;28;20080;-63
2022/09/25 08:37:40;;;;;;;8.93;4.85;;;;;;;23.30;37.56;95149.00;5002662;28;20037;-65
2022/09/25 08:40:27;;;;;;;9.80;5.35;;;;;;;23.04;37.79;95094.22;5002312;28;20108;-66
2022/09/25 08:42:53;;;;;;;9.30;5.40;;;;;;;23.24;37.01;95129.25;5000272;28;20419;-63
2022/09/25 08:50:58;;;;;;;7.78;4.85;;;;;;;23.24;37.63;95144.84;4980372;28;20076;-64
2022/09/25 08:53:23;;;;;;;8.60;4.63;;;;;;;23.33;37.33;95158.19;4981439;28;20039;-64
2022/09/25 08:59:08;;;;;;;9.13;5.20;;;;;;;23.46;37.61;95172.72;4951864;28;20057;-64
2022/09/25 09:01:43;;;;;;;8.60;5.10;;;;;;;23.06;37.67;95123.66;4968060;28;20046;-63
2022/09/25 09:04:09;;;;;;;8.68;4.60;;;;;;;23.49;37.23;95188.78;4997515;28;20048;-63
2022/09/25 09:06:35;;;;;;;7.43;4.32;;;;;;;23.50;37.48;95173.19;5002223;28;20025;-63
2022/09/25 09:09:19;;;;;;;8.88;4.90;;;;;;;23.54;37.31;95179.09;4971602;28;20068;-63
2022/09/25 09:12:05;;;;;;;7.35;4.50;;;;;;;23.50;37.38;95167.72;4979664;28;20577;-65
2022/09/25 09:14:31;;;;;;;6.57;4.30;;;;;;;23.14;37.61;95111.72;4980120;28;20065;-63
2022/09/25 09:17:04;;;;;;;6.88;4.60;;;;;;;23.37;37.22;95142.31;4980236;28;20050;-64
2022/09/25 09:19:30;;;;;;;8.55;4.78;;;;;;;23.47;37.43;95152.38;4971883;28;20046;-64
2022/09/25 09:22:12;;;;;;;7.65;4.90;;;;;;;23.56;37.12;95165.72;5000626;28;20810;-64
2022/09/25 09:25:03;;;;;;;6.40;4.05;;;;;;;23.34;36.89;95121.50;5002422;28;20022;-64
2022/09/25 09:27:47;;;;;;;8.70;4.47;;;;;;;23.56;37.20;95154.81;5001307;28;20136;-63
2022/09/25 09:30:20;;;;;;;7.82;4.35;;;;;;;23.51;37.12;95153.59;4999436;28;20100;-64
2022/09/25 09:33:05;;;;;;;8.13;4.30;;;;;;;23.52;37.51;95159.78;5000961;28;20050;-65
2022/09/25 09:35:55;;;;;;;5.80;3.80;;;;;;;23.38;36.89;95133.63;5001329;28;20038;-66
2022/09/25 09:38:30;;;;;;;;;;;;;;;23.52;37.26;95144.16;5001114;28;20034;-66
2022/09/25 09:41:03;;;;;;;7.00;4.38;;;;;;;23.44;36.92;95131.59;5000364;28;19925;-62
2022/09/25 09:43:48;;;;;;;6.28;3.97;;;;;;;23.53;37.27;95136.75;4983070;28;20604;-63
2022/09/25 09:46:33;;;;;;;8.07;4.22;;;;;;;23.59;37.28;95131.97;5000808;28;20049;-64
2022/09/25 09:49:18;;;;;;;8.95;4.38;;;;;;;23.49;37.02;95128.09;4982826;28;20427;-63
2022/09/25 09:51:46;;;;;;;6.65;4.43;;;;;;;23.57;36.93;95139.91;4972261;28;20064;-63
2022/09/25 09:54:13;;;;;;;8.23;4.13;;;;;;;23.53;37.20;95131.28;4981524;28;20080;-63
2022/09/25 09:56:39;;;;;;;6.60;4.10;;;;;;;23.55;37.31;95126.06;4978004;28;20125;-63
2022/09/25 09:59:11;;;;;;;7.90;4.28;;;;;;;23.51;37.21;95120.13;4963405;28;20129;-64
2022/09/25 10:01:37;;;;;;;7.32;4.10;;;;;;;23.61;37.45;95134.94;5000448;28;20066;-65
2022/09/25 10:04:09;;;;;;;6.60;4.05;;;;;;;23.64;36.59;95133.94;4983300;28;20037;-63
2022/09/25 10:06:37;;;;;;;7.18;4.30;;;;;;;23.51;37.06;95103.78;4967031;28;20156;-63
2022/09/25 10:09:03;;;;;;;5.72;4.20;;;;;;;23.58;36.97;95103.22;4979282;28;20044;-63
2022/09/25 10:11:30;;;;;;;5.40;3.85;;;;;;;23.58;36.87;95108.69;4965658;28;20034;-63
2022/09/25 10:13:55;;;;;;;6.18;4.30;;;;;;;23.24;37.12;95080.19;4983200;28;20057;-64
2022/09/25 10:16:21;;;;;;;6.95;4.05;;;;;;;23.42;37.32;95090.47;4982633;28;20050;-64
2022/09/25 10:18:54;;;;;;;5.97;4.05;;;;;;;23.39;37.17;95110.56;4998065;28;20109;-63
2022/09/25 10:21:26;;;;;;;6.97;4.30;;;;;;;23.57;37.52;95107.19;4980830;28;20088;-64
2022/09/25 10:23:57;;;;;;;5.65;3.90;;;;;;;23.54;37.13;95102.75;4966945;28;20034;-64
2022/09/25 10:26:22;;;;;;;5.50;3.63;;;;;;;23.53;37.49;95106.75;4999810;28;20045;-64
2022/09/25 10:28:48;;;;;;;5.95;4.05;;;;;;;23.46;36.96;95090.94;4999076;28;20060;-63
2022/09/25 10:31:14;;;;;;;5.63;4.00;;;;;;;23.06;37.63;95039.22;4999667;28;20553;-64
2022/09/25 10:33:39;;;;;;;7.50;4.03;;;;;;;23.24;37.88;95080.19;4998714;28;20025;-64
2022/09/25 10:36:05;;;;;;;5.60;3.70;;;;;;;23.08;37.75;95061.28;4982789;28;20038;-64
2022/09/25 10:38:42;;;;;;;6.03;4.43;;;;;;;23.08;37.76;95070.16;4978354;28;20531;-64
2022/09/25 10:41:13;;;;;;;5.80;3.85;;;;;;;23.18;37.84;95071.31;4966942;28;20049;-64
2022/09/25 10:43:55;;;;;;;5.15;4.15;;;;;;;23.06;37.97;95061.78;4960363;28;20047;-63
2022/09/25 10:52:10;;;;;;;6.10;3.63;;;;;;;22.90;38.03;95029.91;4984812;28;20505;-64
2022/09/25 10:54:36;;;;;;;6.45;3.70;;;;;;;23.18;37.93;95071.31;5000922;28;20037;-64
2022/09/25 10:57:34;;;;;;;5.90;3.67;;;;;;;23.20;37.53;95079.75;4997419;28;20034;-64
2022/09/25 11:00:18;;;;;;;6.05;3.33;;;;;;;23.23;38.17;95073.28;4966052;28;20630;-63
2022/09/25 11:02:44;;;;;;;4.25;3.33;;;;;;;23.27;37.74;95073.72;4994584;28;20121;-63
2022/09/25 11:05:16;;;;;;;5.72;3.60;;;;;;;23.25;37.99;95065.34;4999504;28;20121;-64
2022/09/25 11:07:55;;;;;;;5.07;3.70;;;;;;;22.84;38.05;94995.03;4998269;28;20050;-63
2022/09/25 11:10:23;;;;;;;5.85;3.90;;;;;;;23.22;38.17;95052.72;4969716;28;20220;-63
2022/09/25 11:12:49;;;;;;;5.93;3.75;;;;;;;23.19;37.76;95023.78;4995931;28;20121;-65
2022/09/25 11:15:19;;;;;;;4.80;3.63;;;;;;;23.33;37.58;95043.72;4985903;28;20125;-63
2022/09/25 11:17:47;;;;;;;5.15;3.60;;;;;;;23.36;37.98;95051.63;4998578;28;20442;-64
2022/09/25 11:20:16;;;;;;;4.82;3.53;;;;;;;23.41;37.82;95050.84;4974574;28;20105;-63
2022/09/25 11:23:04;;;;;;;5.20;3.88;;;;;;;23.37;37.77;95044.94;4991069;28;20537;-65
2022/09/25 11:25:45;;;;;;;4.65;3.63;;;;;;;23.40;37.70;95043.91;4999808;28;20088;-64
2022/09/25 11:28:13;;;;;;;5.78;3.40;;;;;;;23.42;37.60;95038.69;4977980;28;20043;-64
2022/09/25 11:30:43;;;;;;;5.38;3.50;;;;;;;22.95;37.15;94977.41;4999652;28;20500;-64
2022/09/25 11:33:11;;;;;;;;;;;;;;;23.47;37.19;95043.38;4978526;28;20038;-64
2022/09/25 11:35:53;;;;;;;5.78;3.53;;;;;;;23.44;37.28;95039.66;4999061;28;19917;-64
2022/09/25 11:41:10;;;;;;;6.18;3.67;;;;;;;23.50;37.21;95036.91;4991464;28;20049;-66
2022/09/25 11:41:15;;;;;;;5.35;3.35;;;;;;;23.48;37.43;95023.03;4987586;28;20149;-64
2022/09/25 11:44:05;;;;;;;4.20;3.20;;;;;;;23.58;37.11;95018.72;4950823;28;20176;-64
2022/09/25 11:46:34;;;;;;;4.60;3.47;;;;;;;23.54;37.19;95027.19;4967472;28;20058;-65
2022/09/25 11:49:14;;;;;;;4.40;3.45;;;;;;;23.59;37.19;95022.94;4978824;28;20212;-63
2022/09/25 11:51:58;;;;;;;5.00;3.38;;;;;;;23.58;36.87;95010.53;4950828;28;20037;-63
2022/09/25 11:54:47;;;;;;;3.50;3.10;;;;;;;23.57;36.71;95003.59;4999210;28;20042;-64
2022/09/25 11:57:22;;;;;;;4.97;3.28;;;;;;;23.47;36.53;94983.41;4991010;28;20049;-63
2022/09/25 12:00:20;;;;;;;4.60;3.17;;;;;;;23.62;36.82;94994.66;4978573;28;20065;-62
2022/09/25 12:03:13;;;;;;;5.95;3.25;;;;;;;23.59;37.00;94990.22;4944444;28;20049;-64
2022/09/25 12:06:02;;;;;;;4.43;3.40;;;;;;;23.66;36.95;94995.13;4977480;28;20061;-63
2022/09/25 12:08:49;;;;;;;4.80;3.72;;;;;;;23.70;36.59;94995.59;4974067;28;20052;-64
2022/09/25 12:11:14;;;;;;;4.60;2.83;;;;;;;23.65;36.67;94993.66;4997643;28;20525;-62
2022/09/25 12:14:06;;;;;;;5.45;3.55;;;;;;;23.68;36.37;94970.84;4991836;28;20084;-63
2022/09/25 12:16:51;;;;;;;14.23;4.30;;;;;;;23.76;36.65;94988.09;4973976;28;20046;-63